Flight Track Log - Related Links

Times and Time Zones

All times are in EDT time to prevent confusion due to time zone crossing. See the UPS2054 flight status page for this flight to view local times or setup timezone preferences in your user account.

Time Position Orientation Groundspeed Altitude Reporting Facility
EDT Latitude Longitude Course Direction KTS MPH feet Rate Location/Type
Wed 04:51:13 PM 38.1720 -85.7410 289° West 22 25  Level FlightAware ADS-B
Wed 04:51:52 PM 38.1730 -85.7420 322° Northwest 34 39 194 Level FlightAware ADS-B
Wed 04:52:10 PM 38.1750 -85.7420 360° North 15 17 211 Level FlightAware ADS-B
Wed 04:53:34 PM 38.1780 -85.7410 15° North 18 21 221 Level FlightAware ADS-B
Wed 04:53:46 PM 38.1780 -85.7400 90° East 19 22 278 Level FlightAware ADS-B
Wed 04:54:12 PM 38.1770 -85.7370 113° Southeast 21 24 288 Level FlightAware ADS-B
Wed 04:54:24 PM 38.1770 -85.7350 90° East 21 24 315 Level FlightAware ADS-B
Wed 04:55:24 PM 38.1740 -85.7280 119° Southeast 17 20 328 Level FlightAware ADS-B
Wed 04:55:54 PM 38.1710 -85.7270 165° South 23 26 421 Level FlightAware ADS-B
Wed 04:58:00 PM 38.0667 -85.4717 90° East  Level FlightAware Approximate
Wed 04:58:58 PM 38.1950 -85.7340 90° East 167 192 1,500  Level FlightAware ADS-B
Wed 04:59:00 PM 38.0667 -85.3132 90° East  Level FlightAware Approximate
Wed 04:59:26 PM 38.2170 -85.7420 344° North 182 209 2,600  Level FlightAware ADS-B
Wed 04:59:48 PM 38.2360 -85.7480 346° North 213 245 3,100 1,500 Climbing FlightAware ADS-B
Wed 05:00:06 PM 38.2550 -85.7470 North 241 277 3,600 1,615 Climbing FlightAware ADS-B
Wed 05:00:14 PM 38.2640 -85.7420 24° Northeast 253 291 3,800 3,000 Climbing FlightAware ADS-B
Wed 05:00:34 PM 38.2800 -85.7190 48° Northeast 259 298 5,000 3,250 Climbing FlightAware ADS-B
Wed 05:01:02 PM 38.2940 -85.6810 65° Northeast 272 313 6,400 3,000 Climbing FlightAware ADS-B
Wed 05:01:38 PM 38.2810 -85.6240 106° East 300 345 8,200 2,824 Climbing FlightAware ADS-B
Wed 05:02:10 PM 38.2450 -85.5880 142° Southeast 317 365 9,600 2,385 Climbing FlightAware ADS-B
Wed 05:02:56 PM 38.1890 -85.5340 143° Southeast 355 409 11,300 1,800 Climbing FlightAware ADS-B
Wed 05:03:30 PM 38.1420 -85.4870 142° Southeast 397 457 12,000 1,742 Climbing FlightAware ADS-B
Wed 05:03:58 PM 38.1030 -85.4420 138° Southeast 411 473 13,100 2,314 Climbing FlightAware ADS-B
Wed 05:04:40 PM 38.0780 -85.3430 108° East 424 488 14,700 2,385 Climbing FlightAware ADS-B
Wed 05:05:16 PM 38.0670 -85.2560 99° East 434 499 16,200 2,429 Climbing FlightAware ADS-B
Wed 05:06:04 PM 38.0510 -85.1340 99° East 444 511 18,100 2,182 Climbing FlightAware ADS-B
Wed 05:06:44 PM 38.0370 -85.0330 100° East 456 525 19,400 2,047 Climbing FlightAware ADS-B
Wed 05:07:29 PM 38.0230 -84.9130 98° East 464 534 21,000 2,071 Climbing FlightAware ADS-B
Wed 05:08:08 PM 38.0090 -84.8040 99° East 473 544 22,300 2,000 Climbing FlightAware ADS-B
Wed 05:08:50 PM 37.9940 -84.6850 99° East 480 552 23,700 1,615 Climbing FlightAware ADS-B
Wed 05:09:26 PM 37.9830 -84.5920 99° East 493 567 24,400 1,385 Climbing FlightAware ADS-B
Wed 05:10:21 PM 37.9790 -84.4400 92° East 502 578 25,800 1,705 Climbing FlightAware ADS-B
Wed 05:11:01 PM 37.9900 -84.3270 83° East 501 577 27,100 1,013 Climbing FlightAware ADS-B
Wed 05:11:38 PM 38.0000 -84.2350 82° East 501 577 27,100 1,185 Level FlightAware ADS-B
Wed 05:12:22 PM 38.0270 -84.0930 76° East 502 578 28,700 1,185 Climbing FlightAware ADS-B
Wed 05:12:59 PM 38.0420 -84.0020 78° East 502 578 28,700  Level FlightAware ADS-B
Wed 05:13:44 PM 38.0610 -83.8920 78° East 502 578 28,700  Level FlightAware ADS-B
Wed 05:14:21 PM 38.0760 -83.8010 78° East 502 578 28,700  Level FlightAware ADS-B
Wed 05:15:09 PM 38.0950 -83.6830 78° East 502 578 28,700  Level FlightAware ADS-B
Wed 05:15:45 PM 38.1100 -83.5950 78° East 502 578 28,700 1,323 Level FlightAware ADS-B
Wed 05:18:24 PM 38.1820 -83.0210 81° East 509 586 33,000 1,271 Climbing FlightAware ADS-B
Wed 05:19:08 PM 38.2130 -82.8880 73° East 503 579 33,000  Level FlightAware ADS-B
Wed 05:19:50 PM 38.2700 -82.7910 53° Northeast 500 575 33,000  Level FlightAware ADS-B
Wed 05:20:34 PM 38.3320 -82.6870 53° Northeast 502 578 33,000  Level FlightAware ADS-B
Wed 05:21:14 PM 38.3880 -82.5930 53° Northeast 503 579 33,000  Level FlightAware ADS-B
Wed 05:21:58 PM 38.4490 -82.4860 54° Northeast 498 573 33,000  Level FlightAware ADS-B
Wed 05:22:53 PM 38.5250 -82.3590 53° Northeast 500 575 33,000  Level FlightAware ADS-B
Wed 05:23:29 PM 38.5750 -82.2740 53° Northeast 502 578 33,000  Level FlightAware ADS-B
Wed 05:24:07 PM 38.6280 -82.1830 53° Northeast 502 578 33,000  Level FlightAware ADS-B
Wed 05:24:53 PM 38.6910 -82.0730 54° Northeast 502 578 33,000  Level FlightAware ADS-B
Wed 05:25:33 PM 38.7470 -81.9780 53° Northeast 499 574 33,000  Level FlightAware ADS-B
Wed 05:26:17 PM 38.8060 -81.8760 53° Northeast 498 573 33,000  Level FlightAware ADS-B
Wed 05:27:00 PM 38.8650 -81.7730 54° Northeast 503 579 33,000  Level FlightAware ADS-B
Wed 05:27:34 PM 38.9120 -81.6920 53° Northeast 502 578 33,000  Level FlightAware ADS-B
Wed 05:28:18 PM 38.9730 -81.5840 54° Northeast 500 575 33,000  Level FlightAware ADS-B
Wed 05:28:56 PM 39.0250 -81.4930 54° Northeast 500 575 33,000  Level FlightAware ADS-B
Wed 05:29:38 PM 39.0830 -81.3920 53° Northeast 499 574 33,000  Level FlightAware ADS-B
Wed 05:30:16 PM 39.1330 -81.3030 54° Northeast 500 575 33,000  Level FlightAware ADS-B
Wed 05:30:57 PM 39.1900 -81.2040 53° Northeast 502 578 33,000  Level FlightAware ADS-B
Wed 05:31:35 PM 39.2410 -81.1120 54° Northeast 501 577 33,000  Level FlightAware ADS-B
Wed 05:32:15 PM 39.2960 -81.0160 53° Northeast 500 575 33,000  Level FlightAware ADS-B
Wed 05:33:02 PM 39.3520 -80.9140 55° Northeast 499 574 33,000  Level FlightAware ADS-B
Wed 05:33:44 PM 39.4140 -80.8030 54° Northeast 498 573 33,000  Level FlightAware ADS-B
Wed 05:34:27 PM 39.4760 -80.6940 54° Northeast 500 575 33,000  Level FlightAware ADS-B
Wed 05:35:25 PM 39.5500 -80.5600 54° Northeast 502 578 33,000  Level FlightAware ADS-B
Wed 05:36:05 PM 39.6020 -80.4660 54° Northeast 503 579 33,000  Level FlightAware ADS-B
Wed 05:36:54 PM 39.6670 -80.3490 54° Northeast 504 580 33,000  Level FlightAware ADS-B
Wed 05:37:36 PM 39.7320 -80.2300 55° Northeast 506 582 33,000  Level FlightAware ADS-B
Wed 05:38:24 PM 39.7960 -80.1130 55° Northeast 507 583 33,000  Level FlightAware ADS-B
Wed 05:39:06 PM 39.8530 -80.0090 54° Northeast 507 583 33,000  Level FlightAware ADS-B
Wed 05:39:46 PM 39.9090 -79.9060 55° Northeast 508 585 33,000  Level FlightAware ADS-B
Wed 05:40:30 PM 39.9680 -79.7960 55° Northeast 509 586 33,000  Level FlightAware ADS-B
Wed 05:41:10 PM 40.0220 -79.6960 55° Northeast 509 586 33,000  Level FlightAware ADS-B
Wed 05:41:56 PM 40.0860 -79.5780 55° Northeast 509 586 33,000  Level FlightAware ADS-B
Wed 05:42:27 PM 40.1270 -79.5000 55° Northeast 509 586 33,000  Level FlightAware ADS-B
Wed 05:43:11 PM 40.1860 -79.3910 55° Northeast 507 583 33,000  Level FlightAware ADS-B
Wed 05:43:51 PM 40.2400 -79.2910 55° Northeast 504 580 33,000  Level FlightAware ADS-B
Wed 05:44:27 PM 40.2870 -79.2010 56° Northeast 503 579 33,000  Level FlightAware ADS-B
Wed 05:45:11 PM 40.3450 -79.0910 55° Northeast 501 577 33,000  Level FlightAware ADS-B
Wed 05:45:53 PM 40.4010 -78.9860 55° Northeast 501 577 33,000  Level FlightAware ADS-B
Wed 05:46:35 PM 40.4550 -78.8840 55° Northeast 500 575 33,000  Level FlightAware ADS-B
Wed 05:47:11 PM 40.5030 -78.7910 56° Northeast 500 575 33,000  Level FlightAware ADS-B
Wed 05:47:57 PM 40.5630 -78.6760 55° Northeast 500 575 33,000  Level FlightAware ADS-B
Wed 05:48:39 PM 40.6180 -78.5730 55° Northeast 500 575 33,000  Level FlightAware ADS-B
Wed 05:49:25 PM 40.6770 -78.4580 56° Northeast 499 574 33,000  Level FlightAware ADS-B
Wed 05:50:05 PM 40.7290 -78.3570 56° Northeast 500 575 33,000  Level FlightAware ADS-B
Wed 05:50:50 PM 40.7820 -78.2530 56° Northeast 502 578 33,000  Level FlightAware ADS-B
Wed 05:51:25 PM 40.8310 -78.1600 55° Northeast 502 578 33,000  Level FlightAware ADS-B
Wed 05:52:10 PM 40.8880 -78.0480 56° Northeast 505 581 33,000  Level FlightAware ADS-B
Wed 05:52:50 PM 40.9420 -77.9360 57° Northeast 504 580 33,000  Level FlightAware ADS-B
Wed 05:53:30 PM 40.9870 -77.8350 59° Northeast 503 579 33,000  Level FlightAware ADS-B
Wed 05:54:10 PM 41.0360 -77.7270 59° Northeast 501 577 33,000  Level FlightAware ADS-B
Wed 05:54:50 PM 41.0800 -77.6260 60° Northeast 499 574 33,000  Level FlightAware ADS-B
Wed 05:55:38 PM 41.1370 -77.4970 60° Northeast 498 573 33,000  Level FlightAware ADS-B
Wed 05:56:29 PM 41.1970 -77.3600 60° Northeast 499 574 33,000  Level FlightAware ADS-B
Wed 05:57:11 PM 41.2410 -77.2590 60° Northeast 500 575 33,000  Level FlightAware ADS-B
Wed 05:57:50 PM 41.2890 -77.1500 60° Northeast 502 578 33,000  Level FlightAware ADS-B
Wed 05:58:29 PM 41.3360 -77.0410 60° Northeast 504 580 33,000  Level FlightAware ADS-B
Wed 05:59:05 PM 41.3780 -76.9440 60° Northeast 502 578 33,000  Level FlightAware ADS-B
Wed 05:59:51 PM 41.4290 -76.8260 60° Northeast 500 575 33,000  Level FlightAware ADS-B
Wed 06:00:30 PM 41.4792 -76.7090 60° Northeast 500 575 33,000  Level FlightAware ADS-B
Wed 06:01:07 PM 41.5222 -76.6094 60° Northeast 502 578 33,000  Level FlightAware ADS-B
Wed 06:01:38 PM 41.5576 -76.5280 60° Northeast 508 585 33,000  Level FlightAware ADS-B
Wed 06:02:09 PM 41.5935 -76.4434 60° Northeast 508 585 33,000  Level FlightAware ADS-B
Wed 06:02:42 PM 41.6312 -76.3539 61° Northeast 504 580 33,000  Level FlightAware ADS-B
Wed 06:03:20 PM 41.6758 -76.2481 61° Northeast 505 581 33,000  Level FlightAware ADS-B
Wed 06:03:52 PM 41.7121 -76.1612 61° Northeast 504 580 33,000  Level FlightAware ADS-B
Wed 06:04:24 PM 41.7490 -76.0741 60° Northeast 508 585 33,000  Level FlightAware ADS-B
Wed 06:05:03 PM 41.7937 -75.9696 60° Northeast 509 586 33,000  Level FlightAware ADS-B
Wed 06:05:46 PM 41.8426 -75.8514 61° Northeast 509 586 33,000  Level FlightAware ADS-B
Wed 06:06:36 PM 41.8990 -75.7150 61° Northeast 503 579 33,000  Level FlightAware ADS-B
Wed 06:07:18 PM 41.9460 -75.6030 61° Northeast 507 583 33,000  Level FlightAware ADS-B
Wed 06:08:02 PM 41.9970 -75.4790 61° Northeast 512 589 33,000  Level FlightAware ADS-B
Wed 06:08:42 PM 42.0430 -75.3670 61° Northeast 515 593 33,000  Level FlightAware ADS-B
Wed 06:09:24 PM 42.0930 -75.2510 60° Northeast 514 592 33,000  Level FlightAware ADS-B
Wed 06:10:06 PM 42.1460 -75.1370 58° Northeast 511 588 33,000  Level FlightAware ADS-B
Wed 06:11:18 PM 42.2380 -74.9390 58° Northeast 535 616 33,000 -44 Level FlightAware ADS-B
Wed 06:12:23 PM 42.3190 -74.7610 58° Northeast 544 626 32,900 -655 Descending FlightAware ADS-B
Wed 06:13:08 PM 42.3820 -74.6220 58° Northeast 540 621 31,800 -2,292 Descending FlightAware ADS-B
Wed 06:13:52 PM 42.4380 -74.4990 58° Northeast 534 615 29,500 -2,000 Descending FlightAware ADS-B
Wed 06:14:32 PM 42.4890 -74.3860 59° Northeast 527 606 29,000 -385 Descending FlightAware ADS-B
Wed 06:15:10 PM 42.5380 -74.2760 59° Northeast 529 609 29,000 -488 Level FlightAware ADS-B
Wed 06:15:58 PM 42.5720 -74.1250 73° East 527 606 28,300 -813 Descending FlightAware ADS-B
Wed 06:16:46 PM 42.5900 -73.9860 80° East 522 601 27,700 -333 Descending FlightAware ADS-B
Wed 06:17:46 PM 42.6110 -73.8210 80° East 522 601 27,700  Level FlightAware ADS-B
Wed 06:18:22 PM 42.6240 -73.7220 80° East 522 601 27,700  Level FlightAware ADS-B
Wed 06:19:08 PM 42.6400 -73.5960 80° East 522 601 27,700 -2,885 Level FlightAware ADS-B
Wed 06:20:33 PM 42.6764 -73.3156 80° East 484 557 21,400 -2,772 Descending Boston Center
Wed 06:21:33 PM 42.6939 -73.1772 80° East 479 551 21,000 -200 Descending Boston Center
Wed 06:22:33 PM 42.7161 -72.9658 82° East 467 537 21,000 -1,527 Level Boston Center
Wed 06:28:53 PM 42.8090 -71.9650 82° East 312 359 9,800 -1,793 Descending FlightAware ADS-B
Wed 06:29:58 PM 42.7890 -71.8400 102° East 303 349 7,700 -1,920 Descending FlightAware ADS-B
Wed 06:30:08 PM 42.7870 -71.8230 99° East 305 351 7,400 -1,800 Descending FlightAware ADS-B
Wed 06:30:38 PM 42.7780 -71.7690 103° East 295 339 6,500 -1,309 Descending FlightAware ADS-B
Wed 06:31:03 PM 42.7790 -71.7220 88° East 284 327 6,200 -1,015 Descending FlightAware ADS-B
Wed 06:31:43 PM 42.7830 -71.6510 86° East 283 326 5,400 -1,320 Descending FlightAware ADS-B
Wed 06:31:53 PM 42.7840 -71.6330 86° East 282 325 5,100 -1,500 Descending FlightAware ADS-B
Wed 06:32:23 PM 42.7860 -71.5780 87° East 277 319 4,400 -1,200 Descending FlightAware ADS-B
Wed 06:32:38 PM 42.7870 -71.5540 87° East 269 310 4,200 -450 Descending FlightAware ADS-B
Wed 06:33:03 PM 42.7890 -71.5130 86° East 244 281 4,100 -840 Descending FlightAware ADS-B
Wed 06:33:28 PM 42.7910 -71.4750 86° East 232 267 3,500 -1,080 Descending FlightAware ADS-B
Wed 06:33:53 PM 42.7920 -71.4420 88° East 219 252 3,200 -600 Descending FlightAware ADS-B
Wed 06:34:18 PM 42.7940 -71.4070 86° East 205 236 3,000 -533 Descending FlightAware ADS-B
Wed 06:34:38 PM 42.7990 -71.3830 74° East 195 224 2,800 -667 Descending FlightAware ADS-B
Wed 06:35:03 PM 42.8100 -71.3580 59° Northeast 173 199 2,500 -514 Descending FlightAware ADS-B
Wed 06:35:13 PM 42.8170 -71.3540 23° Northeast 161 185 2,500 -200 Level FlightAware ADS-B
Wed 06:35:33 PM 42.8300 -71.3640 331° Northwest 162 186 2,400 -533 Descending FlightAware ADS-B
Wed 06:35:58 PM 42.8440 -71.3800 320° Northwest 145 167 2,100 -750 Descending FlightAware ADS-B
Wed 06:36:13 PM 42.8520 -71.3850 335° Northwest 126 145 1,900 -800 Descending FlightAware ADS-B
Wed 06:36:43 PM 42.8690 -71.3970 333° Northwest 128 147 1,500 -750 Descending FlightAware ADS-B
Wed 06:36:53 PM 42.8730 -71.3990 340° North 122 140 1,400 -667 Descending FlightAware ADS-B
Wed 06:37:19 PM 42.8890 -71.4080 338° Northwest 128 147 1,100 -667 Descending FlightAware ADS-B
Wed 06:37:38 PM 42.8990 -71.4140 336° Northwest 127 146 900 -682 Descending FlightAware ADS-B
Wed 06:38:03 PM 42.9130 -71.4220 337° Northwest 129 148 600 -750 Descending FlightAware ADS-B
Wed 06:38:18 PM 42.9200 -71.4270 332° Northwest 127 146 400 -293 Descending FlightAware ADS-B
Wed 06:38:44 PM 42.9320 -71.4340 337° Northwest 127 146 400 14,207 Level FlightAware ADS-B
Wed 06:39:45 PM 42.9650 -71.4583 337° Northwest 127 146 21,000 10,215 Climbing Boston Center
Wed 06:40:45 PM 42.9967 -71.4778 336° Northwest 127 146 21,000  Level Boston Center
Wed 06:41:45 PM 43.0217 -71.4944 334° Northwest 127 146 21,000  Level Boston Center
Wed 06:43:00 PM 42.9328 -71.4358 160° South  Level Estimated
Wed 06:50:00 PM 42.9328 -71.4358 160° South  Level Estimated
Wed 06:51:00 PM 42.9328 -71.4358 160° South  Level Estimated
Wed 06:52:00 PM 42.9328 -71.4358 160° South  Level Estimated
Wed 06:53:00 PM 42.9328 -71.4358 160° South  Level Estimated
Wed 06:54:00 PM 42.9328 -71.4358 160° South  Level Estimated

Login

Don't have an account? Register now (free) for customized features, flight alerts, and more!